Terminal Aerodrome Forecast
Issued by NWS Medford, OR

Home | Current Version | Previous Version | Text Only | Print | Product List | Glossary On
Versions: 1 2 3 4 5 6 7 8 9 10 11 12 13 14 15 16
000
FTUS46 KMFR 040256 AAB
TAFMFR
TAF AMD
KMFR 040256Z 0403/0424 33008KT P6SM FEW080
     FM040400 34003KT P6SM FEW060
     FM041400 VRB03KT P6SM BKN050
     FM042000 32010KT P6SM VCSH BKN040 OVC070=

USA.gov is the U.S. government's official web portal to all federal, state and local government web resources and services.